Time;durP1;ratioP1;P1;durP2;ratioP2;P2;SDS_P1;SDS_P2;PMS_P1;PMS_P2;Temp;Humidity;BMP_temperature;BMP_pressure;BME280_temperature;BME280_humidity;BME280_pressure;Samples;Min_cycle;Max_cycle;Signal;HPM_P1;HPM_P2
2021/01/20 00:00:29;;;;;;;4.73;4.00;;;2.50;81.90;;;;;;5044370;28;20225;-90
2021/01/20 00:02:55;;;;;;;4.13;3.70;;;2.50;82.10;;;;;;5040899;28;20189;-91
2021/01/20 00:05:20;;;;;;;6.63;5.03;;;2.50;81.80;;;;;;5042795;28;20181;-91
2021/01/20 00:07:46;;;;;;;7.73;4.87;;;2.50;81.80;;;;;;5044413;28;20192;-91
2021/01/20 00:10:15;;;;;;;6.37;5.17;;;2.50;81.70;;;;;;5042584;28;20639;-91
2021/01/20 00:12:48;;;;;;;5.30;4.43;;;2.40;82.60;;;;;;5043632;28;20183;-91
2021/01/20 00:15:24;;;;;;;4.97;3.97;;;2.40;81.80;;;;;;5043454;28;20162;-91
2021/01/20 00:41:52;;;;;;;4.07;3.03;;;2.00;80.60;;;;;;5023714;28;20211;-91
2021/01/20 00:44:18;;;;;;;4.00;3.43;;;2.10;79.20;;;;;;5025145;28;20213;-91
2021/01/20 00:46:43;;;;;;;3.33;2.90;;;2.20;78.20;;;;;;5023455;28;20186;-91
2021/01/20 00:49:09;;;;;;;4.90;3.00;;;2.30;77.70;;;;;;5023652;28;20201;-91
2021/01/20 00:51:35;;;;;;;4.67;3.00;;;2.30;77.60;;;;;;5025279;28;20209;-91
2021/01/20 00:54:00;;;;;;;12.50;9.53;;;2.30;77.30;;;;;;5047136;28;20185;-91
2021/01/20 00:56:26;;;;;;;4.27;3.80;;;2.30;77.70;;;;;;5045133;28;20556;-92
2021/01/20 00:58:52;;;;;;;5.17;4.37;;;2.30;78.40;;;;;;5044470;28;20208;-91
2021/01/20 01:14:56;;;;;;;4.33;3.50;;;2.10;79.50;;;;;;5048429;28;20235;-91
2021/01/20 01:17:22;;;;;;;3.87;3.00;;;2.20;78.80;;;;;;5043221;28;20195;-91
2021/01/20 01:47:23;;;;;;;4.10;3.70;;;2.10;82.00;;;;;;5042045;28;20156;-91
2021/01/20 01:49:49;;;;;;;3.83;3.43;;;2.10;82.30;;;;;;5043765;28;20200;-91
2021/01/20 01:52:16;;;;;;;4.50;3.80;;;2.10;82.60;;;;;;5043793;28;20302;-91
2021/01/20 01:54:44;;;;;;;3.63;3.30;;;2.20;82.60;;;;;;5043866;28;20239;-91
2021/01/20 01:57:10;;;;;;;3.63;3.20;;;2.20;82.30;;;;;;5043917;28;20184;-91
2021/01/20 01:59:36;;;;;;;4.37;3.97;;;2.30;82.20;;;;;;5044405;28;20277;-91
2021/01/20 02:02:02;;;;;;;4.53;3.87;;;2.30;82.00;;;;;;5041826;28;20181;-91
2021/01/20 02:04:28;;;;;;;3.63;3.33;;;2.30;81.90;;;;;;5042090;28;20205;-90
2021/01/20 02:06:58;;;;;;;4.53;3.73;;;2.20;82.20;;;;;;5043948;28;20173;-91
2021/01/20 02:09:24;;;;;;;4.20;3.60;;;2.10;83.00;;;;;;5042490;28;20243;-91
2021/01/20 02:12:05;;;;;;;4.27;3.87;;;2.10;83.30;;;;;;5042603;28;20207;-91
2021/01/20 02:15:09;;;;;;;4.33;3.80;;;2.10;83.40;;;;;;5048726;28;20195;-90
2021/01/20 02:17:59;;;;;;;3.60;3.30;;;2.20;83.60;;;;;;5047938;28;20191;-90
2021/01/20 02:20:49;;;;;;;3.40;3.10;;;2.20;83.60;;;;;;5045173;28;20268;-90
2021/01/20 02:23:17;;;;;;;4.13;3.67;;;2.30;83.50;;;;;;5023457;28;20174;-91
2021/01/20 02:26:09;;;;;;;4.77;3.87;;;2.10;83.70;;;;;;5028015;28;20182;-90
2021/01/20 02:28:45;;;;;;;4.37;3.77;;;2.10;83.80;;;;;;5046503;28;20173;-91
2021/01/20 02:31:14;;;;;;;3.73;3.13;;;2.20;84.10;;;;;;5044609;28;20157;-90
2021/01/20 02:33:46;;;;;;;5.00;3.77;;;2.20;84.00;;;;;;5042938;28;20177;-91
2021/01/20 02:36:13;;;;;;;3.97;3.30;;;2.20;83.60;;;;;;5042876;28;20231;-91
2021/01/20 02:38:41;;;;;;;5.63;4.57;;;2.20;83.90;;;;;;5041843;28;20192;-91
2021/01/20 02:41:08;;;;;;;4.67;4.10;;;2.10;83.70;;;;;;5041517;28;20205;-91
2021/01/20 02:43:33;;;;;;;4.70;3.97;;;2.00;84.60;;;;;;5043000;28;20234;-91
2021/01/20 02:45:59;;;;;;;5.20;3.80;;;2.00;84.60;;;;;;5043054;28;20210;-90
2021/01/20 02:48:25;;;;;;;6.20;4.87;;;2.00;84.70;;;;;;5041951;28;20173;-89
2021/01/20 02:50:51;;;;;;;6.93;5.20;;;2.00;84.20;;;;;;5025350;28;20216;-91
2021/01/20 02:53:20;;;;;;;6.20;4.67;;;2.00;84.50;;;;;;5042473;28;20195;-91
2021/01/20 02:56:08;;;;;;;7.07;4.50;;;2.10;84.50;;;;;;5043014;28;20185;-91
2021/01/20 02:58:35;;;;;;;5.63;4.00;;;2.00;84.30;;;;;;5042703;28;20173;-92
2021/01/20 03:01:03;;;;;;;5.67;4.13;;;2.00;84.70;;;;;;5043340;28;20205;-92
2021/01/20 03:03:31;;;;;;;5.83;4.23;;;2.00;85.00;;;;;;5041859;28;20843;-91
2021/01/20 03:05:58;;;;;;;5.17;4.53;;;2.00;84.80;;;;;;5042036;28;20193;-91
2021/01/20 03:08:26;;;;;;;4.53;4.03;;;2.00;84.60;;;;;;5041157;28;20178;-91
2021/01/20 03:10:53;;;;;;;5.33;4.23;;;2.00;85.00;;;;;;5041186;28;20205;-91
2021/01/20 03:13:20;;;;;;;4.97;4.00;;;2.00;84.50;;;;;;5042502;28;20192;-91
2021/01/20 03:15:47;;;;;;;4.33;3.83;;;1.90;85.00;;;;;;5025633;28;20185;-91
2021/01/20 03:18:13;;;;;;;4.93;3.83;;;1.90;84.70;;;;;;5025066;28;20193;-91
2021/01/20 03:20:39;;;;;;;4.90;3.73;;;1.80;85.20;;;;;;5024756;28;20221;-91
2021/01/20 03:23:05;;;;;;;5.07;4.07;;;1.90;85.20;;;;;;5041644;28;20177;-91
2021/01/20 03:25:31;;;;;;;4.20;3.70;;;1.80;85.20;;;;;;5042714;28;20181;-91
2021/01/20 03:27:57;;;;;;;4.90;3.93;;;1.80;85.40;;;;;;5043061;28;20584;-91
2021/01/20 03:30:23;;;;;;;3.97;3.57;;;1.80;85.60;;;;;;5025406;28;20269;-91
2021/01/20 03:32:49;;;;;;;4.20;3.80;;;1.70;85.70;;;;;;5041965;28;20204;-90
2021/01/20 03:35:15;;;;;;;4.30;3.90;;;1.80;85.40;;;;;;5042731;28;20640;-90
2021/01/20 03:37:42;;;;;;;5.03;3.80;;;1.80;85.60;;;;;;5026276;28;20185;-90
2021/01/20 03:40:08;;;;;;;3.60;3.30;;;1.80;84.90;;;;;;5061405;28;20279;-91
2021/01/20 03:42:34;;;;;;;4.47;3.57;;;1.70;84.80;;;;;;5059394;28;20623;-91
2021/01/20 03:45:00;;;;;;;3.80;3.47;;;1.60;85.70;;;;;;5059581;28;20187;-90
2021/01/20 03:47:25;;;;;;;4.27;3.43;;;1.60;86.20;;;;;;5059114;28;20679;-91
2021/01/20 03:49:51;;;;;;;5.60;3.70;;;1.60;86.30;;;;;;5059554;28;20247;-92
2021/01/20 03:52:17;;;;;;;5.50;5.00;;;1.70;86.50;;;;;;5074364;28;20203;-92
2021/01/20 03:54:43;;;;;;;5.10;4.33;;;1.60;86.40;;;;;;5059783;28;20655;-91
2021/01/20 03:57:08;;;;;;;4.67;3.67;;;1.60;86.30;;;;;;5061489;28;20177;-91
2021/01/20 03:59:34;;;;;;;4.00;3.53;;;1.50;87.10;;;;;;5061236;28;20258;-92
2021/01/20 04:02:00;;;;;;;4.80;3.40;;;1.50;87.20;;;;;;5062517;28;20176;-91
2021/01/20 04:04:25;;;;;;;4.67;3.73;;;1.50;87.60;;;;;;5062619;28;20172;-91
2021/01/20 04:06:51;;;;;;;6.03;3.80;;;1.60;87.60;;;;;;5044739;28;20195;-91
2021/01/20 04:09:17;;;;;;;3.67;3.37;;;1.60;87.30;;;;;;5061886;28;20211;-91
2021/01/20 04:11:43;;;;;;;4.10;3.70;;;1.60;87.40;;;;;;5061804;28;20179;-90
2021/01/20 04:14:09;;;;;;;3.80;3.23;;;1.70;87.50;;;;;;5060761;28;20262;-90
2021/01/20 04:16:34;;;;;;;3.63;3.20;;;1.70;87.00;;;;;;5045694;28;20192;-91
2021/01/20 04:19:02;;;;;;;4.07;3.63;;;1.80;86.90;;;;;;5060755;28;20183;-91
2021/01/20 04:21:28;;;;;;;4.53;3.70;;;1.80;86.50;;;;;;5062277;28;20211;-91
2021/01/20 04:23:54;;;;;;;3.97;3.57;;;1.80;86.40;;;;;;5061893;28;20172;-91
2021/01/20 04:26:20;;;;;;;4.40;3.57;;;1.90;86.50;;;;;;5062051;28;20248;-91
2021/01/20 04:28:46;;;;;;;4.13;3.37;;;1.90;86.50;;;;;;5061531;28;20180;-91
2021/01/20 04:31:11;;;;;;;3.00;2.70;;;1.80;86.30;;;;;;5077011;28;20553;-90
2021/01/20 04:33:37;;;;;;;3.23;2.90;;;1.80;86.30;;;;;;5061706;28;20230;-91
2021/01/20 04:36:03;;;;;;;3.37;2.70;;;1.80;86.20;;;;;;5062440;28;20273;-90
2021/01/20 04:38:29;;;;;;;3.07;2.60;;;1.80;86.30;;;;;;5043570;28;20212;-91
2021/01/20 04:40:57;;;;;;;3.20;2.20;;;1.90;86.20;;;;;;5060915;28;20231;-91
2021/01/20 04:43:24;;;;;;;2.40;2.20;;;2.10;85.10;;;;;;5062337;28;20640;-91
2021/01/20 04:45:51;;;;;;;2.60;2.20;;;2.20;84.70;;;;;;5062622;28;20219;-90
2021/01/20 04:48:19;;;;;;;3.07;2.30;;;2.30;84.10;;;;;;5057643;28;20173;-91
2021/01/20 04:50:46;;;;;;;2.77;2.30;;;2.30;84.00;;;;;;5043111;28;20212;-91
2021/01/20 04:53:13;;;;;;;3.20;2.70;;;2.20;84.50;;;;;;5043401;28;20180;-91
2021/01/20 04:55:42;;;;;;;2.67;2.27;;;2.10;85.30;;;;;;5047302;28;20207;-91
2021/01/20 04:58:12;;;;;;;4.33;2.50;;;2.20;85.20;;;;;;5038288;28;20178;-91
2021/01/20 05:00:39;;;;;;;2.40;2.20;;;2.20;85.00;;;;;;5026272;28;20261;-92
2021/01/20 05:03:09;;;;;;;3.60;2.57;;;2.50;82.80;;;;;;5022336;28;20319;-92
2021/01/20 05:05:36;;;;;;;2.30;2.10;;;2.50;81.90;;;;;;5036883;28;20229;-92
2021/01/20 05:08:03;;;;;;;2.10;1.90;;;2.70;81.60;;;;;;5057381;28;20188;-92
2021/01/20 05:10:29;;;;;;;2.17;1.97;;;2.60;82.00;;;;;;5043009;28;20201;-91
2021/01/20 05:12:54;;;;;;;2.90;2.07;;;2.60;82.50;;;;;;5040993;28;20180;-91
2021/01/20 05:15:33;;;;;;;2.40;2.20;;;2.70;82.60;;;;;;5024902;28;20578;-91
2021/01/20 05:18:01;;;;;;;2.37;2.10;;;2.70;82.50;;;;;;5044273;28;20185;-90
2021/01/20 05:20:28;;;;;;;1.90;1.80;;;2.80;81.70;;;;;;5062411;28;20243;-91
2021/01/20 05:23:03;;;;;;;3.07;1.77;;;2.80;81.80;;;;;;5043706;28;20272;-92
2021/01/20 05:25:30;;;;;;;2.43;2.23;;;3.10;80.30;;;;;;5061300;28;20195;-91
2021/01/20 05:27:57;;;;;;;2.33;2.13;;;3.00;81.20;;;;;;5061192;28;20265;-90
2021/01/20 05:30:23;;;;;;;2.50;2.30;;;2.90;82.30;;;;;;5060949;28;20204;-90
2021/01/20 05:33:00;;;;;;;2.53;2.20;;;2.80;82.70;;;;;;5077371;28;20195;-91
2021/01/20 05:35:25;;;;;;;2.30;2.10;;;2.80;83.00;;;;;;5077164;28;20267;-90
2021/01/20 05:37:51;;;;;;;2.60;2.17;;;2.80;83.60;;;;;;5060397;28;20219;-91
2021/01/20 05:40:19;;;;;;;2.60;2.40;;;2.70;84.60;;;;;;5045541;28;20200;-91
2021/01/20 05:42:53;;;;;;;2.20;2.00;;;2.60;85.00;;;;;;5062280;28;20179;-91
2021/01/20 05:45:21;;;;;;;2.13;2.03;;;2.60;85.60;;;;;;5062095;28;20165;-91
2021/01/20 05:48:22;;;;;;;2.87;2.63;;;2.60;85.80;;;;;;5063231;28;20181;-90
2021/01/20 05:53:54;;;;;;;3.10;2.80;;;2.60;85.50;;;;;;5859074;22;21352;-91
2021/01/20 05:56:32;;;;;;;3.20;2.80;;;2.70;85.60;;;;;;5061574;28;20203;-92
2021/01/20 05:59:30;;;;;;;2.50;2.30;;;2.60;86.10;;;;;;5062317;28;20208;-91
2021/01/20 06:01:59;;;;;;;3.27;2.97;;;2.50;87.00;;;;;;5053818;28;20192;-92
2021/01/20 06:04:25;;;;;;;4.17;3.10;;;2.40;87.50;;;;;;5058803;28;20218;-92
2021/01/20 06:06:56;;;;;;;3.07;2.77;;;2.50;87.30;;;;;;5064354;28;20266;-92
2021/01/20 06:09:25;;;;;;;3.13;2.83;;;2.40;87.10;;;;;;5061551;28;20187;-92
2021/01/20 06:11:54;;;;;;;3.83;3.30;;;2.40;87.30;;;;;;5075344;28;20188;-92
2021/01/20 06:14:20;;;;;;;3.80;3.40;;;2.40;87.70;;;;;;5063159;28;20210;-92
2021/01/20 06:16:50;;;;;;;3.77;2.93;;;2.40;87.50;;;;;;5063482;28;20184;-93
2021/01/20 06:19:23;;;;;;;3.77;3.37;;;2.40;87.70;;;;;;5063789;28;20207;-93
2021/01/20 06:21:54;;;;;;;3.77;3.40;;;2.30;87.90;;;;;;5064551;28;20186;-92
2021/01/20 06:25:06;;;;;;;3.37;3.07;;;2.40;88.30;;;;;;5048560;28;20564;-94
2021/01/20 06:27:40;;;;;;;3.80;3.20;;;2.30;87.90;;;;;;5058976;28;20672;-93
2021/01/20 06:30:13;;;;;;;3.30;3.00;;;2.40;87.50;;;;;;5061643;28;20211;-93
2021/01/20 06:32:49;;;;;;;3.80;3.00;;;2.40;87.10;;;;;;5063522;28;20267;-92
2021/01/20 06:35:15;;;;;;;3.07;2.60;;;2.40;87.40;;;;;;5070459;28;20214;-92
2021/01/20 06:37:45;;;;;;;3.00;2.73;;;2.40;87.80;;;;;;5043275;28;20187;-91
2021/01/20 06:40:23;;;;;;;3.17;2.80;;;2.40;87.70;;;;;;5065956;28;20209;-92
2021/01/20 06:42:51;;;;;;;4.10;3.47;;;2.40;87.70;;;;;;5081004;28;20195;-92
2021/01/20 06:45:17;;;;;;;4.20;3.70;;;2.50;87.80;;;;;;5063251;28;20179;-92
2021/01/20 06:48:04;;;;;;;3.30;3.00;;;2.50;87.40;;;;;;5080638;28;20190;-91
2021/01/20 06:50:54;;;;;;;4.27;3.10;;;2.40;87.80;;;;;;5071066;28;20195;-92
2021/01/20 06:53:20;;;;;;;3.87;3.37;;;2.40;88.60;;;;;;5060454;28;20204;-91
2021/01/20 06:55:45;;;;;;;4.23;3.27;;;2.40;88.60;;;;;;5061178;28;20218;-91
2021/01/20 06:58:21;;;;;;;4.27;3.80;;;2.40;88.30;;;;;;5063280;28;20618;-91
2021/01/20 07:01:17;;;;;;;4.27;3.50;;;2.40;88.40;;;;;;5062753;28;20195;-91
2021/01/20 07:03:54;;;;;;;4.10;3.70;;;2.30;88.20;;;;;;5051735;28;20216;-91
2021/01/20 07:06:35;;;;;;;4.70;3.50;;;2.30;87.90;;;;;;5042167;28;20188;-88
2021/01/20 07:09:05;;;;;;;5.17;3.43;;;2.40;87.80;;;;;;5051019;28;20230;-89
2021/01/20 07:11:50;;;;;;;5.37;4.20;;;2.30;88.70;;;;;;5048111;28;20195;-89
2021/01/20 07:14:31;;;;;;;5.83;4.73;;;2.30;89.10;;;;;;5043098;28;20212;-89
2021/01/20 07:16:58;;;;;;;4.37;3.80;;;2.30;88.90;;;;;;5058318;28;20188;-88
2021/01/20 07:19:26;;;;;;;6.20;4.70;;;2.20;88.70;;;;;;5045886;28;20662;-88
2021/01/20 07:21:52;;;;;;;6.67;4.40;;;2.30;88.80;;;;;;5057828;28;20261;-89
2021/01/20 07:24:19;;;;;;;5.37;4.60;;;2.40;88.80;;;;;;5058247;28;20663;-88
2021/01/20 07:26:46;;;;;;;6.33;4.07;;;2.40;89.00;;;;;;5057355;28;20185;-89
2021/01/20 07:29:18;;;;;;;6.20;4.40;;;2.40;89.30;;;;;;5056957;28;20215;-89
2021/01/20 07:31:51;;;;;;;9.83;5.30;;;2.40;89.00;;;;;;5054474;28;20188;-89
2021/01/20 07:34:18;;;;;;;7.37;4.93;;;2.50;88.50;;;;;;5062073;28;20200;-89
2021/01/20 07:36:45;;;;;;;8.53;5.30;;;2.50;88.50;;;;;;5061593;28;20192;-89
2021/01/20 07:39:21;;;;;;;8.30;5.70;;;2.50;88.90;;;;;;5061857;28;20251;-88
2021/01/20 07:41:56;;;;;;;7.53;5.73;;;2.50;87.90;;;;;;5063421;28;20219;-88
2021/01/20 07:44:23;;;;;;;8.67;6.60;;;2.50;88.00;;;;;;5060786;28;20195;-88
2021/01/20 07:47:05;;;;;;;7.40;6.70;;;2.50;87.80;;;;;;5061670;28;20185;-89
2021/01/20 07:49:32;;;;;;;11.40;5.87;;;2.50;87.90;;;;;;5061864;28;20176;-89
2021/01/20 07:52:06;;;;;;;6.17;5.20;;;2.50;88.00;;;;;;5065455;28;20184;-90
2021/01/20 07:54:44;;;;;;;7.23;5.07;;;2.60;87.50;;;;;;5060007;28;20211;-89
2021/01/20 07:57:15;;;;;;;6.57;5.03;;;2.60;87.80;;;;;;5059398;28;20739;-88
2021/01/20 07:59:42;;;;;;;5.50;4.83;;;2.60;87.60;;;;;;5047210;28;20215;-89
2021/01/20 08:02:09;;;;;;;5.43;4.93;;;2.50;88.00;;;;;;5059917;28;20651;-89
2021/01/20 08:04:35;;;;;;;6.57;4.90;;;2.60;88.30;;;;;;5057507;28;20258;-90
2021/01/20 08:07:01;;;;;;;7.43;4.90;;;2.60;88.10;;;;;;5058907;28;20240;-89
2021/01/20 08:09:36;;;;;;;8.60;6.00;;;2.70;87.90;;;;;;5056498;28;20222;-89
2021/01/20 08:12:07;;;;;;;7.10;5.53;;;2.70;88.30;;;;;;5058573;28;20191;-90
2021/01/20 08:14:37;;;;;;;5.97;5.30;;;2.60;88.20;;;;;;5058420;28;20204;-91
2021/01/20 08:17:06;;;;;;;7.07;4.67;;;2.70;88.00;;;;;;5058893;28;20206;-89
2021/01/20 08:19:34;;;;;;;5.90;5.17;;;2.70;88.20;;;;;;5059118;28;20206;-89
2021/01/20 08:22:03;;;;;;;5.30;4.80;;;2.80;87.80;;;;;;5059064;28;20180;-88
2021/01/20 08:24:30;;;;;;;5.23;4.50;;;2.80;87.60;;;;;;5055551;28;20200;-89
2021/01/20 08:26:57;;;;;;;6.13;4.73;;;2.80;88.10;;;;;;5057473;28;20176;-88
2021/01/20 08:29:23;;;;;;;6.30;5.53;;;2.70;88.30;;;;;;5047351;28;20194;-90
2021/01/20 08:32:08;;;;;;;59.57;36.40;;;2.80;88.00;;;;;;5059199;28;20188;-91
2021/01/20 08:34:39;;;;;;;45.60;26.40;;;2.80;88.80;;;;;;5043180;28;20222;-90
2021/01/20 08:37:09;;;;;;;16.57;10.30;;;2.80;89.00;;;;;;5059675;28;20212;-91
2021/01/20 08:39:37;;;;;;;9.23;8.33;;;2.80;88.70;;;;;;5048595;28;20664;-91
2021/01/20 08:42:21;;;;;;;7.57;6.77;;;2.80;88.00;;;;;;5058944;28;20191;-90
2021/01/20 08:45:06;;;;;;;8.60;7.50;;;3.00;87.00;;;;;;5058216;28;20168;-90
2021/01/20 08:47:43;;;;;;;14.47;9.20;;;3.00;87.50;;;;;;5042727;28;20275;-90
2021/01/20 08:50:10;;;;;;;9.67;8.13;;;3.00;87.40;;;;;;5062443;28;20199;-89
2021/01/20 08:52:50;;;;;;;23.37;16.90;;;3.00;86.80;;;;;;5062987;28;20188;-89
2021/01/20 08:55:46;;;;;;;32.70;20.23;;;3.00;87.20;;;;;;5065734;28;20259;-89
2021/01/20 08:58:22;;;;;;;64.07;36.70;;;3.00;87.40;;;;;;5057427;28;20211;-90
2021/01/20 09:00:56;;;;;;;44.87;24.10;;;2.90;87.90;;;;;;5065247;28;20222;-89
2021/01/20 09:03:24;;;;;;;29.43;17.50;;;2.90;87.50;;;;;;5059030;28;20223;-89
2021/01/20 09:05:54;;;;;;;16.13;10.97;;;3.10;87.50;;;;;;5063545;28;20195;-89
2021/01/20 09:08:21;;;;;;;13.10;8.80;;;3.10;85.90;;;;;;5052655;28;20184;-87
2021/01/20 09:11:16;;;;;;;8.70;6.23;;;3.20;86.00;;;;;;5034520;28;20195;-91
2021/01/20 09:19:00;;;;;;;6.53;5.70;;;3.40;85.80;;;;;;5026154;26;20216;-90
2021/01/20 09:21:58;;;;;;;7.13;5.33;;;3.50;85.60;;;;;;5040193;28;20226;-89
2021/01/20 09:24:34;;;;;;;9.10;5.90;;;3.60;85.70;;;;;;5008795;28;20210;-91
2021/01/20 09:27:18;;;;;;;9.27;6.80;;;3.70;85.10;;;;;;5039435;28;20515;-90
2021/01/20 09:29:44;;;;;;;12.20;9.23;;;3.70;84.90;;;;;;5022801;28;20185;-91
2021/01/20 09:32:39;;;;;;;11.17;9.50;;;3.60;85.80;;;;;;5023072;28;20189;-92
2021/01/20 09:35:24;;;;;;;7.93;7.03;;;3.70;86.30;;;;;;5013473;28;20190;-90
2021/01/20 09:38:17;;;;;;;6.47;5.83;;;3.90;85.60;;;;;;5018178;28;20192;-91
2021/01/20 09:40:48;;;;;;;4.83;4.13;;;3.90;84.90;;;;;;5017135;28;20209;-93
2021/01/20 09:44:04;;;;;;;4.77;4.27;;;4.10;83.50;;;;;;5016256;28;20209;-90
2021/01/20 09:46:39;;;;;;;7.60;5.47;;;4.10;82.70;;;;;;4961355;28;20179;-90
2021/01/20 09:49:20;;;;;;;6.20;5.13;;;4.20;83.80;;;;;;4955624;28;20191;-90
2021/01/20 09:51:46;;;;;;;6.63;5.53;;;4.20;84.10;;;;;;4967605;28;20191;-90
2021/01/20 09:54:31;;;;;;;6.90;5.77;;;4.20;83.70;;;;;;5031576;22;20232;-91
2021/01/20 09:57:15;;;;;;;7.97;6.60;;;4.30;83.30;;;;;;5025044;28;20185;-90
2021/01/20 10:00:03;;;;;;;7.03;5.87;;;4.30;82.70;;;;;;5023068;28;20286;-90
2021/01/20 10:02:28;;;;;;;8.67;6.97;;;4.30;81.80;;;;;;5033815;28;20180;-91
2021/01/20 10:04:54;;;;;;;9.23;6.90;;;4.60;80.50;;;;;;5009666;28;20260;-91
2021/01/20 10:07:22;;;;;;;7.50;5.70;;;4.70;79.00;;;;;;5008179;28;20185;-91
2021/01/20 10:09:47;;;;;;;7.17;5.87;;;4.70;77.30;;;;;;5034574;28;20181;-91
2021/01/20 10:12:19;;;;;;;7.60;5.33;;;4.70;77.90;;;;;;5037767;28;20189;-91
2021/01/20 10:14:50;;;;;;;7.40;5.43;;;4.70;78.00;;;;;;5035673;28;20188;-91
2021/01/20 10:17:16;;;;;;;6.43;5.83;;;4.80;78.90;;;;;;5009486;28;20561;-91
2021/01/20 10:19:50;;;;;;;5.20;4.70;;;5.00;78.40;;;;;;5036735;28;20197;-92
2021/01/20 10:22:16;;;;;;;6.97;5.60;;;5.20;77.60;;;;;;5029040;28;20180;-93
2021/01/20 10:24:42;;;;;;;16.67;13.97;;;5.50;75.50;;;;;;5036840;28;20227;-91
2021/01/20 10:27:13;;;;;;;17.60;15.80;;;5.50;76.70;;;;;;5024615;28;20252;-91
2021/01/20 10:29:39;;;;;;;16.50;12.33;;;5.40;76.70;;;;;;5010284;28;20276;-91
2021/01/20 10:32:08;;;;;;;10.93;9.83;;;5.50;77.10;;;;;;5011329;28;20217;-92
2021/01/20 10:34:37;;;;;;;10.57;9.57;;;5.60;75.60;;;;;;5026043;28;20498;-92
2021/01/20 10:37:04;;;;;;;9.63;7.87;;;5.70;75.50;;;;;;5025351;28;20193;-90
2021/01/20 10:39:32;;;;;;;8.40;7.50;;;5.70;74.80;;;;;;5035688;28;20201;-89
2021/01/20 10:41:58;;;;;;;8.40;7.13;;;5.70;74.80;;;;;;5035178;28;20177;-91
2021/01/20 10:44:24;;;;;;;7.83;7.03;;;5.80;75.20;;;;;;5035241;28;20209;-91
2021/01/20 10:46:49;;;;;;;9.43;8.63;;;5.80;74.80;;;;;;5035786;28;20185;-90
2021/01/20 10:49:15;;;;;;;11.33;10.13;;;6.00;74.80;;;;;;5035909;28;20177;-90
2021/01/20 10:51:41;;;;;;;11.83;10.40;;;6.00;73.80;;;;;;5035878;28;20568;-92
2021/01/20 10:54:07;;;;;;;31.93;25.07;;;6.10;74.20;;;;;;5016062;28;20236;-91
2021/01/20 10:56:33;;;;;;;33.60;26.20;;;6.10;75.20;;;;;;5036425;28;20181;-91
2021/01/20 10:58:59;;;;;;;40.23;30.50;;;6.10;75.10;;;;;;5038280;28;20208;-91
2021/01/20 11:01:26;;;;;;;22.10;18.37;;;6.00;75.20;;;;;;5017137;28;20280;-90
2021/01/20 11:03:52;;;;;;;26.33;22.70;;;6.00;75.30;;;;;;5014187;28;20598;-91
2021/01/20 11:06:18;;;;;;;16.87;15.27;;;6.10;75.20;;;;;;5040385;28;20238;-91
2021/01/20 11:08:44;;;;;;;11.73;10.53;;;6.10;75.40;;;;;;5027661;28;20279;-92
2021/01/20 11:11:14;;;;;;;6.87;6.37;;;6.20;74.70;;;;;;5022446;28;20928;-92
2021/01/20 11:13:40;;;;;;;8.73;7.90;;;6.40;74.10;;;;;;5019136;28;20250;-91
2021/01/20 11:16:07;;;;;;;6.67;6.07;;;6.50;73.60;;;;;;5026383;28;20197;-91
2021/01/20 11:18:33;;;;;;;8.07;6.40;;;6.50;73.80;;;;;;5030219;28;20205;-90
2021/01/20 11:21:00;;;;;;;6.67;6.03;;;6.60;74.10;;;;;;5042230;28;20201;-90
2021/01/20 11:23:27;;;;;;;6.77;5.70;;;6.50;74.60;;;;;;5041057;28;20205;-90
2021/01/20 11:25:54;;;;;;;7.30;6.23;;;6.60;74.50;;;;;;5029762;28;20204;-91
2021/01/20 11:28:21;;;;;;;12.27;8.47;;;6.80;73.80;;;;;;5036437;28;20181;-91
2021/01/20 11:30:46;;;;;;;8.77;6.70;;;6.90;73.90;;;;;;5037545;28;20196;-90
2021/01/20 11:33:12;;;;;;;7.50;6.67;;;6.90;72.90;;;;;;5036688;28;20204;-92
2021/01/20 11:35:39;;;;;;;5.53;4.20;;;6.90;73.20;;;;;;5042847;28;20191;-91
2021/01/20 11:38:06;;;;;;;5.80;5.30;;;7.00;71.60;;;;;;5040522;28;20185;-91
2021/01/20 11:40:34;;;;;;;5.80;5.30;;;6.90;72.90;;;;;;5037611;28;20216;-91
2021/01/20 11:43:00;;;;;;;6.57;4.43;;;6.90;73.50;;;;;;5032350;28;20197;-91
2021/01/20 11:45:31;;;;;;;5.07;3.83;;;6.90;73.40;;;;;;5041088;28;20177;-90
2021/01/20 11:47:57;;;;;;;7.33;4.43;;;7.00;73.10;;;;;;5023521;28;20208;-91
2021/01/20 11:50:24;;;;;;;4.77;3.83;;;7.00;73.10;;;;;;5028090;28;20205;-90
2021/01/20 11:52:53;;;;;;;7.20;4.07;;;7.00;73.50;;;;;;5042847;28;20224;-90
2021/01/20 11:55:20;;;;;;;6.00;4.33;;;7.00;72.30;;;;;;5043327;28;20227;-90
2021/01/20 11:57:46;;;;;;;6.20;4.37;;;7.00;73.20;;;;;;5060530;28;20180;-90
2021/01/20 12:00:13;;;;;;;6.40;4.20;;;7.00;72.10;;;;;;5054307;28;22061;-91
2021/01/20 12:02:39;;;;;;;4.37;3.90;;;7.00;72.70;;;;;;5041365;28;20227;-92
2021/01/20 12:05:08;;;;;;;4.50;4.10;;;7.20;71.10;;;;;;5037521;28;20185;-90
2021/01/20 12:07:38;;;;;;;5.63;3.87;;;7.40;70.50;;;;;;5032015;28;20188;-90
2021/01/20 12:10:05;;;;;;;4.63;4.23;;;7.40;70.80;;;;;;5032184;28;20882;-91
2021/01/20 12:12:31;;;;;;;4.73;4.20;;;7.40;70.50;;;;;;5011730;28;20188;-88
2021/01/20 12:14:57;;;;;;;4.80;4.30;;;7.60;69.10;;;;;;5028928;28;20243;-88
2021/01/20 12:17:23;;;;;;;5.07;4.30;;;7.60;69.80;;;;;;5038441;28;20185;-88
2021/01/20 12:19:49;;;;;;;5.80;5.20;;;7.70;69.70;;;;;;5012451;28;20620;-88
2021/01/20 12:22:15;;;;;;;5.07;4.57;;;7.80;70.40;;;;;;5025177;28;20628;-87
2021/01/20 12:24:41;;;;;;;5.43;4.93;;;8.10;67.80;;;;;;5037847;28;20332;-89
2021/01/20 12:27:09;;;;;;;5.70;4.80;;;8.20;68.30;;;;;;5026869;28;20184;-90
2021/01/20 12:29:36;;;;;;;6.23;5.63;;;8.50;67.70;;;;;;5029838;28;20653;-91
2021/01/20 12:32:02;;;;;;;7.03;5.90;;;8.60;67.80;;;;;;5024669;28;20193;-88
2021/01/20 12:34:27;;;;;;;10.73;8.50;;;8.60;68.50;;;;;;5041928;28;20648;-89
2021/01/20 12:36:53;;;;;;;11.87;9.17;;;8.70;66.80;;;;;;5029779;28;20217;-89
2021/01/20 12:39:19;;;;;;;9.50;8.13;;;8.70;65.90;;;;;;5030077;28;20193;-88
2021/01/20 12:41:45;;;;;;;7.80;6.80;;;8.60;67.10;;;;;;5040114;28;20285;-89
2021/01/20 12:44:10;;;;;;;9.40;5.93;;;8.50;67.80;;;;;;5029156;28;20209;-87
2021/01/20 12:46:38;;;;;;;10.00;8.03;;;8.40;69.20;;;;;;5012610;28;20186;-88
2021/01/20 12:49:05;;;;;;;7.03;5.83;;;8.50;67.30;;;;;;5032403;28;20220;-88
2021/01/20 12:51:31;;;;;;;8.27;6.40;;;8.60;67.80;;;;;;5028053;28;20243;-87
2021/01/20 12:53:57;;;;;;;8.10;7.17;;;8.60;68.20;;;;;;5005296;28;20225;-88
2021/01/20 12:56:23;;;;;;;7.80;7.00;;;8.40;69.50;;;;;;5018459;28;20257;-89
2021/01/20 12:58:48;;;;;;;7.53;6.40;;;8.50;69.90;;;;;;5014534;28;20200;-88
2021/01/20 13:01:14;;;;;;;8.43;7.53;;;8.50;69.80;;;;;;5016560;28;20609;-89
2021/01/20 13:03:41;;;;;;;8.13;7.33;;;8.70;70.40;;;;;;5014130;28;20214;-88
2021/01/20 13:06:08;;;;;;;7.80;7.00;;;8.70;69.70;;;;;;4988123;28;20182;-88
2021/01/20 13:08:34;;;;;;;7.00;6.30;;;8.80;69.70;;;;;;5016271;28;20709;-88
2021/01/20 13:10:59;;;;;;;8.17;7.13;;;8.90;69.90;;;;;;5003161;28;20183;-89
2021/01/20 13:13:25;;;;;;;6.60;6.03;;;8.90;69.90;;;;;;5014600;28;20207;-88
2021/01/20 13:15:53;;;;;;;7.70;6.60;;;9.00;69.90;;;;;;5016929;28;20199;-89
2021/01/20 13:18:19;;;;;;;7.27;6.50;;;9.10;69.50;;;;;;5017905;28;20243;-89
2021/01/20 13:20:45;;;;;;;8.63;7.77;;;9.30;68.00;;;;;;5017976;28;20206;-89
2021/01/20 13:23:11;;;;;;;7.93;7.13;;;9.20;67.90;;;;;;5000299;28;20701;-88
2021/01/20 13:25:37;;;;;;;9.00;7.17;;;9.20;68.80;;;;;;5015663;28;20188;-88
2021/01/20 13:28:03;;;;;;;8.80;6.23;;;9.30;67.70;;;;;;5021679;28;20190;-88
2021/01/20 13:30:28;;;;;;;8.70;6.90;;;9.40;68.10;;;;;;5020329;28;20180;-89
2021/01/20 13:32:54;;;;;;;9.30;6.07;;;9.70;65.60;;;;;;5018279;28;20208;-88
2021/01/20 13:35:21;;;;;;;12.60;6.17;;;9.80;65.10;;;;;;5003485;28;20191;-88
2021/01/20 13:37:46;;;;;;;10.43;6.53;;;9.90;64.60;;;;;;5014032;28;20199;-88
2021/01/20 13:40:13;;;;;;;11.13;6.00;;;9.90;65.00;;;;;;5021335;28;20250;-90
2021/01/20 13:42:39;;;;;;;8.27;5.83;;;9.80;64.80;;;;;;5016079;28;20267;-88
2021/01/20 13:45:05;;;;;;;10.07;7.13;;;9.80;64.40;;;;;;5019010;28;20657;-88
2021/01/20 13:47:31;;;;;;;32.13;19.30;;;10.00;63.40;;;;;;5022808;28;20190;-89
2021/01/20 13:50:05;;;;;;;11.73;9.23;;;10.10;64.00;;;;;;5017989;28;20607;-89
2021/01/20 13:52:33;;;;;;;7.90;5.97;;;10.20;63.10;;;;;;5019079;28;20175;-89
2021/01/20 13:54:59;;;;;;;7.93;5.20;;;10.20;63.10;;;;;;5029864;28;20188;-89
2021/01/20 13:57:25;;;;;;;8.53;5.23;;;10.40;62.40;;;;;;5006243;28;20195;-88
2021/01/20 13:59:51;;;;;;;9.37;5.53;;;10.40;63.00;;;;;;5022726;28;20211;-89
2021/01/20 14:02:16;;;;;;;6.10;5.27;;;10.50;62.60;;;;;;4986260;28;20656;-88
2021/01/20 14:04:42;;;;;;;7.93;5.27;;;10.50;62.20;;;;;;5020553;28;20207;-89
2021/01/20 14:07:10;;;;;;;9.07;4.73;;;10.60;62.30;;;;;;5037582;28;20179;-89
2021/01/20 14:09:37;;;;;;;7.57;4.43;;;10.60;59.90;;;;;;5018064;28;20199;-89
2021/01/20 14:12:03;;;;;;;6.80;4.50;;;10.70;60.70;;;;;;5035366;28;20212;-88
2021/01/20 14:14:32;;;;;;;6.43;4.53;;;10.70;60.50;;;;;;5033021;28;20267;-88
2021/01/20 14:16:59;;;;;;;4.90;3.53;;;10.90;57.60;;;;;;5033805;28;20235;-89
2021/01/20 14:19:24;;;;;;;4.17;3.60;;;10.90;57.00;;;;;;5034677;28;20223;-89
2021/01/20 14:21:53;;;;;;;4.33;3.73;;;10.80;57.80;;;;;;5033570;28;20208;-88